sensor_id;sensor_type;location;lat;lon;timestamp;P1;durP1;ratioP1;P2;durP2;ratioP2
20832;SDS011;56075;51.264;7.150;2023-09-19T00:01:25;5.95;;;1.77;;
20832;SDS011;56075;51.264;7.150;2023-09-19T00:03:58;10.77;;;1.48;;
20832;SDS011;56075;51.264;7.150;2023-09-19T00:06:29;10.65;;;1.85;;
20832;SDS011;56075;51.264;7.150;2023-09-19T00:09:02;8.88;;;1.85;;
20832;SDS011;56075;51.264;7.150;2023-09-19T00:11:34;9.80;;;1.70;;
20832;SDS011;56075;51.264;7.150;2023-09-19T00:14:05;14.30;;;1.60;;
20832;SDS011;56075;51.264;7.150;2023-09-19T00:16:39;14.95;;;2.20;;
20832;SDS011;56075;51.264;7.150;2023-09-19T00:19:11;7.60;;;1.80;;
20832;SDS011;56075;51.264;7.150;2023-09-19T00:21:43;6.60;;;1.60;;
20832;SDS011;56075;51.264;7.150;2023-09-19T00:24:16;10.00;;;2.05;;
20832;SDS011;56075;51.264;7.150;2023-09-19T00:26:48;9.07;;;1.75;;
20832;SDS011;56075;51.264;7.150;2023-09-19T00:29:20;9.00;;;1.60;;
20832;SDS011;56075;51.264;7.150;2023-09-19T00:31:51;13.50;;;2.13;;
20832;SDS011;56075;51.264;7.150;2023-09-19T00:34:23;9.82;;;1.70;;
20832;SDS011;56075;51.264;7.150;2023-09-19T00:36:54;8.90;;;1.73;;
20832;SDS011;56075;51.264;7.150;2023-09-19T00:39:26;9.60;;;1.70;;
20832;SDS011;56075;51.264;7.150;2023-09-19T00:42:01;7.55;;;1.63;;
20832;SDS011;56075;51.264;7.150;2023-09-19T00:44:35;13.50;;;2.10;;
20832;SDS011;56075;51.264;7.150;2023-09-19T00:47:08;9.95;;;1.75;;
20832;SDS011;56075;51.264;7.150;2023-09-19T00:49:40;8.35;;;1.58;;
20832;SDS011;56075;51.264;7.150;2023-09-19T00:52:11;11.95;;;1.90;;
20832;SDS011;56075;51.264;7.150;2023-09-19T00:54:43;9.98;;;1.77;;
20832;SDS011;56075;51.264;7.150;2023-09-19T00:57:14;5.00;;;1.30;;
20832;SDS011;56075;51.264;7.150;2023-09-19T00:59:45;15.27;;;2.33;;
20832;SDS011;56075;51.264;7.150;2023-09-19T01:02:21;9.88;;;1.83;;
20832;SDS011;56075;51.264;7.150;2023-09-19T01:04:52;12.40;;;1.83;;
20832;SDS011;56075;51.264;7.150;2023-09-19T01:07:24;13.23;;;1.75;;
20832;SDS011;56075;51.264;7.150;2023-09-19T01:09:56;9.00;;;1.95;;
20832;SDS011;56075;51.264;7.150;2023-09-19T01:12:49;8.50;;;1.65;;
20832;SDS011;56075;51.264;7.150;2023-09-19T01:30:21;11.05;;;1.73;;
20832;SDS011;56075;51.264;7.150;2023-09-19T01:32:58;10.40;;;1.90;;
20832;SDS011;56075;51.264;7.150;2023-09-19T01:35:30;10.43;;;1.80;;
20832;SDS011;56075;51.264;7.150;2023-09-19T01:38:01;15.68;;;1.90;;
20832;SDS011;56075;51.264;7.150;2023-09-19T01:40:33;10.98;;;1.70;;
20832;SDS011;56075;51.264;7.150;2023-09-19T01:43:20;8.05;;;1.60;;
20832;SDS011;56075;51.264;7.150;2023-09-19T01:48:42;6.80;;;1.48;;
20832;SDS011;56075;51.264;7.150;2023-09-19T01:51:20;10.98;;;1.85;;
20832;SDS011;56075;51.264;7.150;2023-09-19T01:54:03;8.00;;;1.75;;
20832;SDS011;56075;51.264;7.150;2023-09-19T01:59:28;10.35;;;1.77;;
20832;SDS011;56075;51.264;7.150;2023-09-19T02:02:06;15.10;;;1.85;;
20832;SDS011;56075;51.264;7.150;2023-09-19T02:04:39;7.95;;;1.42;;
20832;SDS011;56075;51.264;7.150;2023-09-19T02:07:11;7.38;;;1.80;;
20832;SDS011;56075;51.264;7.150;2023-09-19T02:09:42;11.60;;;1.75;;
20832;SDS011;56075;51.264;7.150;2023-09-19T02:12:13;14.45;;;2.03;;
20832;SDS011;56075;51.264;7.150;2023-09-19T02:14:46;10.00;;;1.75;;
20832;SDS011;56075;51.264;7.150;2023-09-19T02:17:17;12.75;;;1.40;;
20832;SDS011;56075;51.264;7.150;2023-09-19T02:19:48;15.30;;;2.00;;
20832;SDS011;56075;51.264;7.150;2023-09-19T02:22:19;13.77;;;2.00;;
20832;SDS011;56075;51.264;7.150;2023-09-19T02:24:51;11.93;;;1.80;;
20832;SDS011;56075;51.264;7.150;2023-09-19T02:27:23;8.60;;;1.70;;
20832;SDS011;56075;51.264;7.150;2023-09-19T02:29:56;11.60;;;1.83;;
20832;SDS011;56075;51.264;7.150;2023-09-19T02:32:28;12.55;;;1.98;;
20832;SDS011;56075;51.264;7.150;2023-09-19T02:35:01;18.13;;;1.88;;
20832;SDS011;56075;51.264;7.150;2023-09-19T02:37:34;9.55;;;2.20;;
20832;SDS011;56075;51.264;7.150;2023-09-19T02:40:06;12.25;;;1.70;;
20832;SDS011;56075;51.264;7.150;2023-09-19T02:42:49;15.52;;;1.75;;
20832;SDS011;56075;51.264;7.150;2023-09-19T02:45:24;11.13;;;1.50;;
20832;SDS011;56075;51.264;7.150;2023-09-19T02:47:56;9.65;;;1.80;;
20832;SDS011;56075;51.264;7.150;2023-09-19T02:50:27;11.23;;;1.85;;
20832;SDS011;56075;51.264;7.150;2023-09-19T02:52:59;10.40;;;1.77;;
20832;SDS011;56075;51.264;7.150;2023-09-19T02:55:30;12.07;;;1.80;;
20832;SDS011;56075;51.264;7.150;2023-09-19T02:58:02;11.23;;;1.48;;
20832;SDS011;56075;51.264;7.150;2023-09-19T03:00:35;8.10;;;1.60;;
20832;SDS011;56075;51.264;7.150;2023-09-19T03:03:07;7.72;;;1.67;;
20832;SDS011;56075;51.264;7.150;2023-09-19T03:05:39;10.00;;;1.80;;
20832;SDS011;56075;51.264;7.150;2023-09-19T03:08:10;6.85;;;1.60;;
20832;SDS011;56075;51.264;7.150;2023-09-19T03:10:42;14.05;;;1.48;;
20832;SDS011;56075;51.264;7.150;2023-09-19T03:13:16;14.70;;;2.30;;
20832;SDS011;56075;51.264;7.150;2023-09-19T03:15:47;9.18;;;1.70;;
20832;SDS011;56075;51.264;7.150;2023-09-19T03:18:24;5.85;;;1.23;;
20832;SDS011;56075;51.264;7.150;2023-09-19T03:20:57;12.30;;;1.80;;
20832;SDS011;56075;51.264;7.150;2023-09-19T03:23:31;8.07;;;1.45;;
20832;SDS011;56075;51.264;7.150;2023-09-19T03:26:02;9.77;;;1.80;;
20832;SDS011;56075;51.264;7.150;2023-09-19T03:28:35;13.02;;;1.65;;
20832;SDS011;56075;51.264;7.150;2023-09-19T03:31:06;8.95;;;1.95;;
20832;SDS011;56075;51.264;7.150;2023-09-19T03:33:40;5.07;;;1.60;;
20832;SDS011;56075;51.264;7.150;2023-09-19T03:36:11;11.43;;;1.80;;
20832;SDS011;56075;51.264;7.150;2023-09-19T03:38:44;10.30;;;2.05;;
20832;SDS011;56075;51.264;7.150;2023-09-19T03:41:16;11.05;;;1.60;;
20832;SDS011;56075;51.264;7.150;2023-09-19T03:43:48;9.27;;;1.80;;
20832;SDS011;56075;51.264;7.150;2023-09-19T03:46:20;13.27;;;2.10;;
20832;SDS011;56075;51.264;7.150;2023-09-19T03:48:51;8.85;;;1.40;;
20832;SDS011;56075;51.264;7.150;2023-09-19T03:51:22;9.00;;;1.60;;
20832;SDS011;56075;51.264;7.150;2023-09-19T03:53:54;8.95;;;1.60;;
20832;SDS011;56075;51.264;7.150;2023-09-19T03:56:25;9.10;;;1.75;;
20832;SDS011;56075;51.264;7.150;2023-09-19T03:58:57;8.85;;;1.60;;
20832;SDS011;56075;51.264;7.150;2023-09-19T04:01:28;9.63;;;1.65;;
20832;SDS011;56075;51.264;7.150;2023-09-19T04:04:02;9.02;;;1.48;;
20832;SDS011;56075;51.264;7.150;2023-09-19T04:06:40;11.57;;;1.45;;
20832;SDS011;56075;51.264;7.150;2023-09-19T04:09:11;16.73;;;1.80;;
20832;SDS011;56075;51.264;7.150;2023-09-19T04:11:42;14.52;;;1.80;;
20832;SDS011;56075;51.264;7.150;2023-09-19T04:14:14;12.02;;;1.45;;
20832;SDS011;56075;51.264;7.150;2023-09-19T04:16:45;13.07;;;1.90;;
20832;SDS011;56075;51.264;7.150;2023-09-19T04:19:16;8.15;;;1.60;;
20832;SDS011;56075;51.264;7.150;2023-09-19T04:21:48;10.60;;;1.60;;
20832;SDS011;56075;51.264;7.150;2023-09-19T04:24:19;9.48;;;1.80;;
20832;SDS011;56075;51.264;7.150;2023-09-19T04:26:51;11.68;;;1.80;;
20832;SDS011;56075;51.264;7.150;2023-09-19T04:29:23;15.30;;;1.85;;
20832;SDS011;56075;51.264;7.150;2023-09-19T04:31:57;6.95;;;1.60;;
20832;SDS011;56075;51.264;7.150;2023-09-19T04:34:28;8.25;;;1.58;;
20832;SDS011;56075;51.264;7.150;2023-09-19T04:36:59;9.98;;;1.55;;
20832;SDS011;56075;51.264;7.150;2023-09-19T04:39:31;10.20;;;2.10;;
20832;SDS011;56075;51.264;7.150;2023-09-19T04:42:02;8.25;;;1.70;;
20832;SDS011;56075;51.264;7.150;2023-09-19T04:44:34;10.75;;;1.70;;
20832;SDS011;56075;51.264;7.150;2023-09-19T04:47:06;9.75;;;1.90;;
20832;SDS011;56075;51.264;7.150;2023-09-19T04:49:38;10.02;;;1.90;;
20832;SDS011;56075;51.264;7.150;2023-09-19T04:52:10;9.02;;;1.38;;
20832;SDS011;56075;51.264;7.150;2023-09-19T04:54:42;11.75;;;1.50;;
20832;SDS011;56075;51.264;7.150;2023-09-19T04:57:13;12.52;;;1.90;;
20832;SDS011;56075;51.264;7.150;2023-09-19T04:59:44;13.82;;;1.95;;
20832;SDS011;56075;51.264;7.150;2023-09-19T05:02:15;11.23;;;1.60;;
20832;SDS011;56075;51.264;7.150;2023-09-19T05:04:47;12.80;;;1.63;;
20832;SDS011;56075;51.264;7.150;2023-09-19T05:07:18;11.52;;;1.80;;
20832;SDS011;56075;51.264;7.150;2023-09-19T05:09:50;12.30;;;1.70;;
20832;SDS011;56075;51.264;7.150;2023-09-19T05:12:21;11.25;;;1.77;;
20832;SDS011;56075;51.264;7.150;2023-09-19T05:14:52;11.23;;;2.08;;
20832;SDS011;56075;51.264;7.150;2023-09-19T05:17:24;14.37;;;2.10;;
20832;SDS011;56075;51.264;7.150;2023-09-19T05:19:55;12.07;;;1.58;;
20832;SDS011;56075;51.264;7.150;2023-09-19T05:22:26;13.05;;;1.95;;
20832;SDS011;56075;51.264;7.150;2023-09-19T05:24:58;11.10;;;1.92;;
20832;SDS011;56075;51.264;7.150;2023-09-19T05:27:29;15.82;;;1.95;;
20832;SDS011;56075;51.264;7.150;2023-09-19T05:30:02;9.43;;;1.92;;
20832;SDS011;56075;51.264;7.150;2023-09-19T05:32:34;15.68;;;1.92;;
20832;SDS011;56075;51.264;7.150;2023-09-19T05:35:05;8.15;;;1.80;;
20832;SDS011;56075;51.264;7.150;2023-09-19T05:37:40;16.17;;;1.85;;
20832;SDS011;56075;51.264;7.150;2023-09-19T05:40:11;13.23;;;1.92;;
20832;SDS011;56075;51.264;7.150;2023-09-19T05:42:43;13.00;;;2.15;;
20832;SDS011;56075;51.264;7.150;2023-09-19T05:45:14;10.50;;;2.03;;
20832;SDS011;56075;51.264;7.150;2023-09-19T05:47:49;15.63;;;1.95;;
20832;SDS011;56075;51.264;7.150;2023-09-19T05:50:22;11.15;;;1.52;;
20832;SDS011;56075;51.264;7.150;2023-09-19T05:52:55;10.18;;;1.73;;
20832;SDS011;56075;51.264;7.150;2023-09-19T05:55:26;8.57;;;1.80;;
20832;SDS011;56075;51.264;7.150;2023-09-19T05:57:59;8.23;;;2.03;;
20832;SDS011;56075;51.264;7.150;2023-09-19T06:00:30;12.35;;;1.80;;
20832;SDS011;56075;51.264;7.150;2023-09-19T06:03:02;10.25;;;1.77;;
20832;SDS011;56075;51.264;7.150;2023-09-19T06:05:34;11.43;;;2.13;;
20832;SDS011;56075;51.264;7.150;2023-09-19T06:08:05;11.68;;;2.28;;
20832;SDS011;56075;51.264;7.150;2023-09-19T06:10:38;20.83;;;2.30;;
20832;SDS011;56075;51.264;7.150;2023-09-19T06:13:09;12.00;;;2.00;;
20832;SDS011;56075;51.264;7.150;2023-09-19T06:15:41;11.15;;;2.03;;
20832;SDS011;56075;51.264;7.150;2023-09-19T06:18:12;10.05;;;1.70;;
20832;SDS011;56075;51.264;7.150;2023-09-19T06:20:50;12.07;;;1.90;;
20832;SDS011;56075;51.264;7.150;2023-09-19T06:23:22;13.18;;;2.40;;
20832;SDS011;56075;51.264;7.150;2023-09-19T06:25:55;13.35;;;1.75;;
20832;SDS011;56075;51.264;7.150;2023-09-19T06:28:27;11.38;;;1.85;;
20832;SDS011;56075;51.264;7.150;2023-09-19T06:30:58;9.13;;;1.98;;
20832;SDS011;56075;51.264;7.150;2023-09-19T06:33:30;9.98;;;2.05;;
20832;SDS011;56075;51.264;7.150;2023-09-19T06:36:02;12.55;;;2.08;;
20832;SDS011;56075;51.264;7.150;2023-09-19T06:38:35;16.83;;;2.10;;
20832;SDS011;56075;51.264;7.150;2023-09-19T06:41:09;9.32;;;1.80;;
20832;SDS011;56075;51.264;7.150;2023-09-19T06:43:41;11.10;;;2.05;;
20832;SDS011;56075;51.264;7.150;2023-09-19T06:46:12;11.82;;;2.10;;
20832;SDS011;56075;51.264;7.150;2023-09-19T06:48:44;12.00;;;2.00;;
20832;SDS011;56075;51.264;7.150;2023-09-19T06:51:18;9.30;;;1.75;;
20832;SDS011;56075;51.264;7.150;2023-09-19T06:53:49;10.70;;;1.70;;
20832;SDS011;56075;51.264;7.150;2023-09-19T06:56:22;14.25;;;1.70;;
20832;SDS011;56075;51.264;7.150;2023-09-19T06:58:54;11.93;;;2.20;;
20832;SDS011;56075;51.264;7.150;2023-09-19T07:01:25;9.00;;;1.77;;
20832;SDS011;56075;51.264;7.150;2023-09-19T07:03:56;12.07;;;1.95;;
20832;SDS011;56075;51.264;7.150;2023-09-19T07:06:31;14.07;;;2.20;;
20832;SDS011;56075;51.264;7.150;2023-09-19T07:09:02;9.73;;;1.75;;
20832;SDS011;56075;51.264;7.150;2023-09-19T07:11:34;12.70;;;1.92;;
20832;SDS011;56075;51.264;7.150;2023-09-19T07:14:06;9.70;;;1.70;;
20832;SDS011;56075;51.264;7.150;2023-09-19T07:16:37;15.63;;;2.53;;
20832;SDS011;56075;51.264;7.150;2023-09-19T07:19:10;14.32;;;2.50;;
20832;SDS011;56075;51.264;7.150;2023-09-19T07:21:45;10.60;;;2.08;;
20832;SDS011;56075;51.264;7.150;2023-09-19T07:24:18;14.00;;;1.95;;
20832;SDS011;56075;51.264;7.150;2023-09-19T07:26:50;13.23;;;1.85;;
20832;SDS011;56075;51.264;7.150;2023-09-19T07:29:22;10.95;;;1.92;;
20832;SDS011;56075;51.264;7.150;2023-09-19T07:31:56;12.77;;;1.85;;
20832;SDS011;56075;51.264;7.150;2023-09-19T07:34:28;14.20;;;1.80;;
20832;SDS011;56075;51.264;7.150;2023-09-19T07:36:59;15.68;;;2.28;;
20832;SDS011;56075;51.264;7.150;2023-09-19T07:39:31;9.55;;;1.90;;
20832;SDS011;56075;51.264;7.150;2023-09-19T07:42:02;11.82;;;2.05;;
20832;SDS011;56075;51.264;7.150;2023-09-19T07:44:37;13.05;;;2.20;;
20832;SDS011;56075;51.264;7.150;2023-09-19T07:47:08;13.50;;;1.98;;
20832;SDS011;56075;51.264;7.150;2023-09-19T07:49:40;10.93;;;2.13;;
20832;SDS011;56075;51.264;7.150;2023-09-19T07:52:12;10.82;;;1.80;;
20832;SDS011;56075;51.264;7.150;2023-09-19T07:54:44;13.45;;;1.83;;
20832;SDS011;56075;51.264;7.150;2023-09-19T07:57:15;10.38;;;2.00;;
20832;SDS011;56075;51.264;7.150;2023-09-19T07:59:47;11.88;;;2.10;;
20832;SDS011;56075;51.264;7.150;2023-09-19T08:02:18;8.98;;;2.17;;
20832;SDS011;56075;51.264;7.150;2023-09-19T08:04:49;10.82;;;1.75;;
20832;SDS011;56075;51.264;7.150;2023-09-19T08:07:22;9.27;;;1.65;;
20832;SDS011;56075;51.264;7.150;2023-09-19T08:09:54;12.98;;;2.00;;
20832;SDS011;56075;51.264;7.150;2023-09-19T08:12:25;9.90;;;2.47;;
20832;SDS011;56075;51.264;7.150;2023-09-19T08:14:56;15.43;;;1.90;;
20832;SDS011;56075;51.264;7.150;2023-09-19T08:17:27;9.60;;;1.70;;
20832;SDS011;56075;51.264;7.150;2023-09-19T08:19:59;9.40;;;1.65;;
20832;SDS011;56075;51.264;7.150;2023-09-19T08:22:31;14.50;;;1.92;;
20832;SDS011;56075;51.264;7.150;2023-09-19T08:25:02;10.43;;;1.95;;
20832;SDS011;56075;51.264;7.150;2023-09-19T08:27:34;13.63;;;2.10;;
20832;SDS011;56075;51.264;7.150;2023-09-19T08:30:06;11.73;;;2.00;;
20832;SDS011;56075;51.264;7.150;2023-09-19T08:32:38;9.75;;;2.00;;
20832;SDS011;56075;51.264;7.150;2023-09-19T08:35:10;14.27;;;2.15;;
20832;SDS011;56075;51.264;7.150;2023-09-19T08:37:44;9.88;;;2.05;;
20832;SDS011;56075;51.264;7.150;2023-09-19T08:40:18;11.55;;;2.00;;
20832;SDS011;56075;51.264;7.150;2023-09-19T08:42:54;9.30;;;1.80;;
20832;SDS011;56075;51.264;7.150;2023-09-19T08:45:26;16.13;;;1.70;;
20832;SDS011;56075;51.264;7.150;2023-09-19T08:51:03;9.82;;;1.80;;
20832;SDS011;56075;51.264;7.150;2023-09-19T08:54:21;11.52;;;1.85;;
20832;SDS011;56075;51.264;7.150;2023-09-19T08:56:34;9.45;;;1.58;;
20832;SDS011;56075;51.264;7.150;2023-09-19T08:59:10;10.50;;;2.00;;
20832;SDS011;56075;51.264;7.150;2023-09-19T09:01:41;9.55;;;1.70;;
20832;SDS011;56075;51.264;7.150;2023-09-19T09:04:14;7.45;;;1.70;;
20832;SDS011;56075;51.264;7.150;2023-09-19T09:06:45;13.27;;;2.00;;
20832;SDS011;56075;51.264;7.150;2023-09-19T09:09:21;13.45;;;2.28;;
20832;SDS011;56075;51.264;7.150;2023-09-19T09:11:52;13.93;;;1.98;;
20832;SDS011;56075;51.264;7.150;2023-09-19T09:14:27;6.15;;;1.80;;
20832;SDS011;56075;51.264;7.150;2023-09-19T09:17:00;10.60;;;2.15;;
20832;SDS011;56075;51.264;7.150;2023-09-19T09:19:31;9.80;;;1.83;;
20832;SDS011;56075;51.264;7.150;2023-09-19T09:22:09;11.13;;;1.63;;
20832;SDS011;56075;51.264;7.150;2023-09-19T09:24:53;10.73;;;1.85;;
20832;SDS011;56075;51.264;7.150;2023-09-19T09:27:28;8.48;;;1.80;;
20832;SDS011;56075;51.264;7.150;2023-09-19T09:30:00;12.10;;;1.80;;
20832;SDS011;56075;51.264;7.150;2023-09-19T09:32:31;9.75;;;2.10;;
20832;SDS011;56075;51.264;7.150;2023-09-19T09:35:08;12.95;;;2.15;;
20832;SDS011;56075;51.264;7.150;2023-09-19T09:37:40;9.98;;;1.83;;
20832;SDS011;56075;51.264;7.150;2023-09-19T09:40:14;10.02;;;2.00;;
20832;SDS011;56075;51.264;7.150;2023-09-19T09:42:45;8.90;;;1.65;;
20832;SDS011;56075;51.264;7.150;2023-09-19T09:45:29;12.30;;;1.65;;
20832;SDS011;56075;51.264;7.150;2023-09-19T09:48:06;17.45;;;1.75;;
20832;SDS011;56075;51.264;7.150;2023-09-19T09:50:46;7.93;;;1.40;;
20832;SDS011;56075;51.264;7.150;2023-09-19T09:53:27;9.52;;;1.50;;
20832;SDS011;56075;51.264;7.150;2023-09-19T09:56:08;8.20;;;1.60;;
20832;SDS011;56075;51.264;7.150;2023-09-19T09:58:50;10.13;;;1.88;;
20832;SDS011;56075;51.264;7.150;2023-09-19T10:01:26;9.80;;;1.60;;
20832;SDS011;56075;51.264;7.150;2023-09-19T10:04:01;6.18;;;1.55;;
20832;SDS011;56075;51.264;7.150;2023-09-19T10:06:40;10.13;;;2.08;;
20832;SDS011;56075;51.264;7.150;2023-09-19T10:09:18;10.63;;;1.83;;
20832;SDS011;56075;51.264;7.150;2023-09-19T10:12:02;7.63;;;1.70;;
20832;SDS011;56075;51.264;7.150;2023-09-19T10:14:37;9.15;;;1.80;;
20832;SDS011;56075;51.264;7.150;2023-09-19T10:17:09;8.30;;;1.85;;
20832;SDS011;56075;51.264;7.150;2023-09-19T10:19:45;7.03;;;1.60;;
20832;SDS011;56075;51.264;7.150;2023-09-19T10:22:27;9.30;;;1.95;;
20832;SDS011;56075;51.264;7.150;2023-09-19T10:25:03;8.65;;;1.63;;
20832;SDS011;56075;51.264;7.150;2023-09-19T10:27:37;10.07;;;1.65;;
20832;SDS011;56075;51.264;7.150;2023-09-19T10:30:11;9.90;;;1.80;;
20832;SDS011;56075;51.264;7.150;2023-09-19T10:32:43;8.13;;;1.58;;
20832;SDS011;56075;51.264;7.150;2023-09-19T10:35:17;9.35;;;1.45;;
20832;SDS011;56075;51.264;7.150;2023-09-19T10:37:49;10.18;;;1.83;;
20832;SDS011;56075;51.264;7.150;2023-09-19T10:40:22;10.70;;;1.50;;
20832;SDS011;56075;51.264;7.150;2023-09-19T10:43:04;11.40;;;1.75;;
20832;SDS011;56075;51.264;7.150;2023-09-19T10:45:36;8.52;;;1.50;;
20832;SDS011;56075;51.264;7.150;2023-09-19T10:48:11;7.47;;;1.67;;
20832;SDS011;56075;51.264;7.150;2023-09-19T10:50:43;11.13;;;1.65;;
20832;SDS011;56075;51.264;7.150;2023-09-19T10:56:26;9.27;;;2.08;;
20832;SDS011;56075;51.264;7.150;2023-09-19T10:59:06;10.73;;;1.80;;
20832;SDS011;56075;51.264;7.150;2023-09-19T11:01:53;6.78;;;1.63;;
20832;SDS011;56075;51.264;7.150;2023-09-19T11:04:29;11.23;;;1.58;;
20832;SDS011;56075;51.264;7.150;2023-09-19T11:07:06;8.23;;;1.63;;
20832;SDS011;56075;51.264;7.150;2023-09-19T11:26:57;6.05;;;1.52;;
20832;SDS011;56075;51.264;7.150;2023-09-19T11:29:45;8.10;;;1.67;;
20832;SDS011;56075;51.264;7.150;2023-09-19T11:32:16;5.32;;;1.42;;
20832;SDS011;56075;51.264;7.150;2023-09-19T11:35:07;5.68;;;1.52;;
20832;SDS011;56075;51.264;7.150;2023-09-19T11:40:10;6.43;;;1.55;;
20832;SDS011;56075;51.264;7.150;2023-09-19T11:42:47;7.13;;;1.60;;
20832;SDS011;56075;51.264;7.150;2023-09-19T11:48:17;9.20;;;1.50;;
20832;SDS011;56075;51.264;7.150;2023-09-19T11:50:49;6.70;;;1.75;;
20832;SDS011;56075;51.264;7.150;2023-09-19T11:53:21;9.73;;;1.92;;
20832;SDS011;56075;51.264;7.150;2023-09-19T11:55:54;5.60;;;1.50;;
20832;SDS011;56075;51.264;7.150;2023-09-19T11:58:27;6.47;;;1.60;;
20832;SDS011;56075;51.264;7.150;2023-09-19T12:01:00;4.68;;;1.60;;
20832;SDS011;56075;51.264;7.150;2023-09-19T12:03:35;6.05;;;1.60;;
20832;SDS011;56075;51.264;7.150;2023-09-19T12:06:12;7.93;;;1.65;;
20832;SDS011;56075;51.264;7.150;2023-09-19T12:08:45;7.40;;;1.60;;
20832;SDS011;56075;51.264;7.150;2023-09-19T12:11:18;10.35;;;1.98;;
20832;SDS011;56075;51.264;7.150;2023-09-19T12:13:51;5.90;;;1.63;;
20832;SDS011;56075;51.264;7.150;2023-09-19T12:16:23;5.30;;;1.40;;
20832;SDS011;56075;51.264;7.150;2023-09-19T12:18:57;9.45;;;1.58;;
20832;SDS011;56075;51.264;7.150;2023-09-19T12:21:29;8.60;;;1.70;;
20832;SDS011;56075;51.264;7.150;2023-09-19T12:24:07;6.13;;;1.30;;
20832;SDS011;56075;51.264;7.150;2023-09-19T12:26:46;6.35;;;1.30;;
20832;SDS011;56075;51.264;7.150;2023-09-19T12:29:22;7.85;;;1.38;;
20832;SDS011;56075;51.264;7.150;2023-09-19T12:31:55;5.55;;;1.48;;
20832;SDS011;56075;51.264;7.150;2023-09-19T12:34:35;7.80;;;1.30;;
20832;SDS011;56075;51.264;7.150;2023-09-19T12:37:13;7.88;;;1.40;;
20832;SDS011;56075;51.264;7.150;2023-09-19T12:39:52;7.93;;;1.75;;
20832;SDS011;56075;51.264;7.150;2023-09-19T12:42:27;4.43;;;1.40;;
20832;SDS011;56075;51.264;7.150;2023-09-19T12:45:06;5.65;;;1.50;;
20832;SDS011;56075;51.264;7.150;2023-09-19T12:47:40;9.60;;;1.75;;
20832;SDS011;56075;51.264;7.150;2023-09-19T12:50:14;6.03;;;1.50;;
20832;SDS011;56075;51.264;7.150;2023-09-19T12:52:50;5.78;;;1.35;;
20832;SDS011;56075;51.264;7.150;2023-09-19T12:55:23;6.13;;;1.33;;
20832;SDS011;56075;51.264;7.150;2023-09-19T13:00:38;6.38;;;1.48;;
20832;SDS011;56075;51.264;7.150;2023-09-19T13:05:56;9.93;;;2.03;;
20832;SDS011;56075;51.264;7.150;2023-09-19T13:08:32;7.13;;;1.40;;
20832;SDS011;56075;51.264;7.150;2023-09-19T13:11:05;6.38;;;1.40;;
20832;SDS011;56075;51.264;7.150;2023-09-19T13:16:54;5.43;;;1.20;;
20832;SDS011;56075;51.264;7.150;2023-09-19T13:19:40;7.28;;;1.50;;
20832;SDS011;56075;51.264;7.150;2023-09-19T13:25:24;5.03;;;1.25;;
20832;SDS011;56075;51.264;7.150;2023-09-19T13:27:57;4.78;;;1.38;;
20832;SDS011;56075;51.264;7.150;2023-09-19T13:30:30;5.18;;;1.15;;
20832;SDS011;56075;51.264;7.150;2023-09-19T13:33:05;3.58;;;0.93;;
20832;SDS011;56075;51.264;7.150;2023-09-19T13:35:40;4.18;;;0.90;;
20832;SDS011;56075;51.264;7.150;2023-09-19T13:38:12;5.03;;;1.08;;
20832;SDS011;56075;51.264;7.150;2023-09-19T13:40:43;4.85;;;1.10;;
20832;SDS011;56075;51.264;7.150;2023-09-19T13:43:15;3.08;;;1.00;;
20832;SDS011;56075;51.264;7.150;2023-09-19T13:45:46;3.65;;;1.05;;
20832;SDS011;56075;51.264;7.150;2023-09-19T13:48:18;3.35;;;0.93;;
20832;SDS011;56075;51.264;7.150;2023-09-19T13:50:52;5.30;;;1.13;;
20832;SDS011;56075;51.264;7.150;2023-09-19T13:53:26;4.07;;;1.00;;
20832;SDS011;56075;51.264;7.150;2023-09-19T13:55:58;3.53;;;0.90;;
20832;SDS011;56075;51.264;7.150;2023-09-19T13:58:29;5.25;;;1.00;;
20832;SDS011;56075;51.264;7.150;2023-09-19T14:01:01;7.85;;;1.25;;
20832;SDS011;56075;51.264;7.150;2023-09-19T14:03:33;5.63;;;1.23;;
20832;SDS011;56075;51.264;7.150;2023-09-19T14:06:05;3.88;;;1.00;;
20832;SDS011;56075;51.264;7.150;2023-09-19T14:08:36;4.80;;;0.90;;
20832;SDS011;56075;51.264;7.150;2023-09-19T14:11:09;6.93;;;0.88;;
20832;SDS011;56075;51.264;7.150;2023-09-19T14:13:41;5.95;;;1.50;;
20832;SDS011;56075;51.264;7.150;2023-09-19T14:16:17;2.80;;;0.82;;
20832;SDS011;56075;51.264;7.150;2023-09-19T14:18:48;6.30;;;0.98;;
20832;SDS011;56075;51.264;7.150;2023-09-19T14:21:20;1.90;;;0.70;;
20832;SDS011;56075;51.264;7.150;2023-09-19T14:23:51;3.95;;;0.80;;
20832;SDS011;56075;51.264;7.150;2023-09-19T14:26:25;4.13;;;1.05;;
20832;SDS011;56075;51.264;7.150;2023-09-19T14:28:56;3.40;;;1.00;;
20832;SDS011;56075;51.264;7.150;2023-09-19T14:31:27;6.38;;;1.08;;
20832;SDS011;56075;51.264;7.150;2023-09-19T14:33:58;2.55;;;0.60;;
20832;SDS011;56075;51.264;7.150;2023-09-19T14:36:30;2.70;;;0.75;;
20832;SDS011;56075;51.264;7.150;2023-09-19T14:39:01;3.55;;;0.60;;
20832;SDS011;56075;51.264;7.150;2023-09-19T14:41:32;2.40;;;0.65;;
20832;SDS011;56075;51.264;7.150;2023-09-19T14:44:04;4.55;;;0.73;;
20832;SDS011;56075;51.264;7.150;2023-09-19T14:46:36;4.28;;;0.90;;
20832;SDS011;56075;51.264;7.150;2023-09-19T14:49:07;4.75;;;0.80;;
20832;SDS011;56075;51.264;7.150;2023-09-19T14:51:40;2.67;;;0.75;;
20832;SDS011;56075;51.264;7.150;2023-09-19T14:54:12;4.07;;;0.70;;
20832;SDS011;56075;51.264;7.150;2023-09-19T14:56:44;2.72;;;0.80;;
20832;SDS011;56075;51.264;7.150;2023-09-19T14:59:15;6.40;;;0.77;;
20832;SDS011;56075;51.264;7.150;2023-09-19T15:01:46;2.47;;;0.70;;
20832;SDS011;56075;51.264;7.150;2023-09-19T15:04:20;2.15;;;0.70;;
20832;SDS011;56075;51.264;7.150;2023-09-19T15:06:51;3.47;;;0.80;;
20832;SDS011;56075;51.264;7.150;2023-09-19T15:09:25;4.07;;;0.73;;
20832;SDS011;56075;51.264;7.150;2023-09-19T15:11:56;4.80;;;0.90;;
20832;SDS011;56075;51.264;7.150;2023-09-19T15:14:27;3.33;;;0.88;;
20832;SDS011;56075;51.264;7.150;2023-09-19T15:17:00;2.75;;;0.70;;
20832;SDS011;56075;51.264;7.150;2023-09-19T15:19:31;3.60;;;0.80;;
20832;SDS011;56075;51.264;7.150;2023-09-19T15:22:02;2.88;;;0.85;;
20832;SDS011;56075;51.264;7.150;2023-09-19T15:24:34;6.43;;;0.93;;
20832;SDS011;56075;51.264;7.150;2023-09-19T15:27:05;3.92;;;0.80;;
20832;SDS011;56075;51.264;7.150;2023-09-19T15:29:37;4.43;;;0.80;;
20832;SDS011;56075;51.264;7.150;2023-09-19T15:32:09;6.47;;;0.60;;
20832;SDS011;56075;51.264;7.150;2023-09-19T15:34:40;3.80;;;0.90;;
20832;SDS011;56075;51.264;7.150;2023-09-19T15:37:12;6.05;;;0.95;;
20832;SDS011;56075;51.264;7.150;2023-09-19T15:39:43;2.53;;;0.65;;
20832;SDS011;56075;51.264;7.150;2023-09-19T15:42:16;4.53;;;0.80;;
20832;SDS011;56075;51.264;7.150;2023-09-19T15:44:47;3.53;;;0.80;;
20832;SDS011;56075;51.264;7.150;2023-09-19T15:47:21;2.65;;;0.80;;
20832;SDS011;56075;51.264;7.150;2023-09-19T15:49:52;4.05;;;0.60;;
20832;SDS011;56075;51.264;7.150;2023-09-19T15:52:24;2.08;;;0.70;;
20832;SDS011;56075;51.264;7.150;2023-09-19T15:54:56;6.38;;;1.20;;
20832;SDS011;56075;51.264;7.150;2023-09-19T15:57:28;2.50;;;0.70;;
20832;SDS011;56075;51.264;7.150;2023-09-19T15:59:59;3.92;;;0.98;;
20832;SDS011;56075;51.264;7.150;2023-09-19T16:02:31;1.77;;;0.80;;
20832;SDS011;56075;51.264;7.150;2023-09-19T16:05:02;2.97;;;0.80;;
20832;SDS011;56075;51.264;7.150;2023-09-19T16:07:37;4.55;;;0.95;;
20832;SDS011;56075;51.264;7.150;2023-09-19T16:10:08;4.07;;;1.40;;
20832;SDS011;56075;51.264;7.150;2023-09-19T16:12:40;6.05;;;1.50;;
20832;SDS011;56075;51.264;7.150;2023-09-19T16:15:11;4.47;;;1.05;;
20832;SDS011;56075;51.264;7.150;2023-09-19T16:17:44;3.88;;;0.90;;
20832;SDS011;56075;51.264;7.150;2023-09-19T16:20:17;6.75;;;1.20;;